createdAt,value
2017-12-11T05:00:51.954Z,0
2017-12-11T05:01:17.459Z,0
2017-12-11T05:01:43.017Z,0
2017-12-11T05:02:08.500Z,0
2017-12-11T05:02:33.990Z,0
2017-12-11T05:02:59.512Z,0
2017-12-11T05:03:24.984Z,0
2017-12-11T05:03:50.456Z,0
2017-12-11T05:04:15.947Z,0
2017-12-11T05:04:41.489Z,0
2017-12-11T05:05:06.973Z,0
2017-12-11T05:05:32.501Z,0
2017-12-11T05:05:57.983Z,0
2017-12-11T05:06:23.469Z,0
2017-12-11T05:06:48.928Z,0
2017-12-11T05:07:14.440Z,0
2017-12-11T05:07:39.914Z,0
2017-12-11T05:08:05.400Z,0
2017-12-11T05:08:30.908Z,0
2017-12-11T05:08:56.417Z,0
2017-12-11T05:09:21.898Z,0
2017-12-11T05:09:47.416Z,0
2017-12-11T05:10:12.877Z,0
2017-12-11T05:10:38.407Z,0
2017-12-11T05:11:03.992Z,0
2017-12-11T05:11:29.464Z,0
2017-12-11T05:11:54.934Z,0
2017-12-11T05:12:20.411Z,0
2017-12-11T05:12:45.889Z,0
2017-12-11T05:13:59.672Z,0
2017-12-11T05:14:25.218Z,0
2017-12-11T05:14:50.661Z,0
2017-12-11T05:15:16.123Z,0
2017-12-11T05:15:41.643Z,0
2017-12-11T05:16:07.118Z,0
2017-12-11T05:16:32.617Z,0
2017-12-11T05:16:58.059Z,0
2017-12-11T05:17:23.542Z,0
2017-12-11T05:17:49.087Z,0
2017-12-11T05:18:14.500Z,0
2017-12-11T05:18:40.001Z,0
2017-12-11T05:19:05.470Z,0
2017-12-11T05:19:30.927Z,0
2017-12-11T05:19:56.417Z,0
2017-12-11T05:20:21.914Z,0
2017-12-11T05:20:47.370Z,0
2017-12-11T05:21:12.880Z,0
2017-12-11T05:21:38.312Z,0
2017-12-11T05:22:03.835Z,0
2017-12-11T05:22:29.317Z,0
2017-12-11T05:22:54.777Z,0
2017-12-11T05:23:20.302Z,0
2017-12-11T05:23:45.764Z,0
2017-12-11T05:24:11.375Z,0
2017-12-11T05:24:36.901Z,0
2017-12-11T05:25:02.358Z,0
2017-12-11T05:25:27.780Z,0
2017-12-11T05:25:53.348Z,0
2017-12-11T05:26:18.777Z,0
2017-12-11T05:26:44.333Z,0
2017-12-11T05:27:09.807Z,0
2017-12-11T05:27:35.274Z,0
2017-12-11T05:28:00.784Z,0
2017-12-11T05:28:26.332Z,0
2017-12-11T05:28:51.818Z,0
2017-12-11T05:29:17.345Z,0
2017-12-11T05:29:42.862Z,0
2017-12-11T05:30:08.327Z,0
2017-12-11T05:30:33.823Z,0
2017-12-11T05:30:59.252Z,0
2017-12-11T05:31:24.764Z,0
2017-12-11T05:31:50.326Z,0
2017-12-11T05:32:15.823Z,0
2017-12-11T05:32:41.322Z,0
2017-12-11T05:33:06.820Z,0
2017-12-11T05:33:32.327Z,0
2017-12-11T05:33:57.808Z,0
2017-12-11T05:34:23.311Z,0
2017-12-11T05:34:48.770Z,0
2017-12-11T05:35:14.218Z,0
2017-12-11T05:35:39.719Z,0
2017-12-11T05:36:05.230Z,0
2017-12-11T05:36:30.719Z,0
2017-12-11T05:36:56.212Z,0
2017-12-11T05:37:21.703Z,0
2017-12-11T05:37:47.222Z,0
2017-12-11T05:38:12.693Z,0
2017-12-11T05:38:38.192Z,0
2017-12-11T05:39:03.654Z,0
2017-12-11T05:39:29.087Z,0
2017-12-11T05:39:54.591Z,0
2017-12-11T05:40:20.095Z,0
2017-12-11T05:40:45.568Z,0
2017-12-11T05:41:10.985Z,0
2017-12-11T05:41:36.557Z,0
2017-12-11T05:42:01.967Z,0
2017-12-11T05:42:27.445Z,0
2017-12-11T05:42:52.918Z,0
2017-12-11T05:43:18.372Z,0
2017-12-11T05:43:43.836Z,0
2017-12-11T05:44:09.309Z,0
2017-12-11T05:44:34.773Z,0
2017-12-11T05:45:00.229Z,0
2017-12-11T05:45:25.764Z,0
2017-12-11T05:45:51.200Z,0
2017-12-11T05:46:16.699Z,0
2017-12-11T05:46:42.221Z,0
2017-12-11T05:47:07.711Z,0
2017-12-11T05:47:33.153Z,0
2017-12-11T05:47:58.665Z,0
2017-12-11T05:48:24.148Z,0
2017-12-11T05:48:49.645Z,0
2017-12-11T05:49:15.131Z,0
2017-12-11T05:49:40.620Z,0
2017-12-11T05:50:06.054Z,0
2017-12-11T05:50:31.511Z,0
2017-12-11T05:50:57.045Z,0
2017-12-11T05:51:22.497Z,0
2017-12-11T05:51:47.948Z,0
2017-12-11T05:52:13.490Z,0
2017-12-11T05:52:38.955Z,0
2017-12-11T05:53:04.483Z,0
2017-12-11T05:53:29.974Z,0
2017-12-11T05:53:55.404Z,0
2017-12-11T05:54:20.882Z,0
2017-12-11T05:54:46.410Z,0
2017-12-11T05:55:11.893Z,0
2017-12-11T05:55:37.355Z,0
2017-12-11T05:56:02.826Z,0
2017-12-11T05:56:28.351Z,0
2017-12-11T05:56:53.858Z,0
2017-12-11T05:57:19.319Z,0
2017-12-11T05:57:44.759Z,0
2017-12-11T05:58:10.253Z,0
2017-12-11T05:58:35.912Z,0
2017-12-11T05:59:01.354Z,0
2017-12-11T05:59:26.816Z,0
2017-12-11T05:59:52.286Z,0
2017-12-11T06:00:17.779Z,0
2017-12-11T06:00:43.261Z,0
2017-12-11T06:01:08.756Z,0
2017-12-11T06:01:34.282Z,0
2017-12-11T06:01:59.745Z,0
2017-12-11T06:02:25.238Z,0
2017-12-11T06:02:50.680Z,0
2017-12-11T06:03:16.146Z,0
2017-12-11T06:03:41.613Z,0
2017-12-11T06:04:07.093Z,0
2017-12-11T06:04:32.530Z,0
2017-12-11T06:04:58.022Z,0
2017-12-11T06:05:23.508Z,0
2017-12-11T06:05:48.967Z,0
2017-12-11T06:06:14.425Z,0
2017-12-11T06:06:39.869Z,0
2017-12-11T06:07:05.346Z,0
2017-12-11T06:07:30.831Z,0
2017-12-11T06:07:56.312Z,0
2017-12-11T06:08:21.778Z,0
2017-12-11T06:08:47.227Z,0
2017-12-11T06:09:12.655Z,0
2017-12-11T06:09:38.183Z,0
2017-12-11T06:10:03.626Z,0
2017-12-11T06:10:29.123Z,0
2017-12-11T06:10:54.579Z,0
2017-12-11T06:11:20.038Z,0
2017-12-11T06:11:45.496Z,0
2017-12-11T06:12:11.104Z,0
2017-12-11T06:12:36.612Z,0
2017-12-11T06:13:02.063Z,0
2017-12-11T06:13:27.530Z,0
2017-12-11T06:13:52.978Z,0
2017-12-11T06:14:18.475Z,0
2017-12-11T06:14:43.913Z,0
2017-12-11T06:15:09.391Z,0
2017-12-11T06:15:34.871Z,0
2017-12-11T06:16:00.382Z,0
2017-12-11T06:16:25.846Z,0
2017-12-11T06:16:51.322Z,0
2017-12-11T06:17:16.761Z,0
2017-12-11T06:17:42.211Z,0
2017-12-11T06:18:07.672Z,0
2017-12-11T06:18:33.189Z,0
2017-12-11T06:18:58.688Z,0
2017-12-11T06:19:24.173Z,0
2017-12-11T06:19:49.639Z,0
2017-12-11T06:20:15.195Z,0
2017-12-11T06:20:40.592Z,0
2017-12-11T06:21:06.070Z,0
2017-12-11T06:21:31.528Z,0
2017-12-11T06:21:57.017Z,0
2017-12-11T06:22:22.439Z,0
2017-12-11T06:22:47.943Z,0
2017-12-11T06:23:13.495Z,0
2017-12-11T06:23:38.930Z,0
2017-12-11T06:24:04.389Z,0
2017-12-11T06:24:29.836Z,0
2017-12-11T06:24:55.326Z,0
2017-12-11T06:25:20.872Z,0
2017-12-11T06:25:46.309Z,0
2017-12-11T06:26:11.799Z,0
2017-12-11T06:26:37.293Z,0
2017-12-11T06:27:02.768Z,0
2017-12-11T06:27:28.209Z,0
2017-12-11T06:27:53.705Z,0
2017-12-11T06:28:19.475Z,0
2017-12-11T06:29:48.533Z,0
2017-12-11T06:30:13.999Z,0
2017-12-11T06:30:39.473Z,0
2017-12-11T06:31:04.982Z,0
2017-12-11T06:31:30.425Z,0
2017-12-11T06:32:54.392Z,0
2017-12-11T06:33:19.905Z,0
2017-12-11T06:33:45.396Z,0
2017-12-11T06:34:10.917Z,0
2017-12-11T06:34:36.351Z,0
2017-12-11T06:35:01.864Z,0
2017-12-11T06:35:27.288Z,0
2017-12-11T06:35:52.755Z,0
2017-12-11T06:36:18.270Z,0
2017-12-11T06:36:43.764Z,0
2017-12-11T06:37:09.271Z,0
2017-12-11T06:37:34.741Z,0
2017-12-11T06:38:43.484Z,0
2017-12-11T06:39:08.940Z,0
2017-12-11T06:39:34.410Z,0
2017-12-11T06:39:59.927Z,0
2017-12-11T06:40:25.396Z,0
2017-12-11T06:40:50.940Z,0
2017-12-11T06:41:16.424Z,0
2017-12-11T06:42:35.313Z,0
2017-12-11T06:43:00.826Z,0
2017-12-11T06:43:26.288Z,0
2017-12-11T06:43:51.728Z,0
2017-12-11T06:44:17.242Z,0
2017-12-11T06:44:42.644Z,0
2017-12-11T06:45:08.131Z,0
2017-12-11T06:45:33.614Z,0
2017-12-11T06:45:59.079Z,0
2017-12-11T06:46:24.580Z,0
2017-12-11T06:47:53.654Z,0
2017-12-11T06:48:19.132Z,0
2017-12-11T06:48:44.604Z,0
2017-12-11T06:49:10.099Z,0
2017-12-11T06:49:35.533Z,0
2017-12-11T06:50:00.976Z,0
2017-12-11T06:50:26.436Z,0
2017-12-11T06:50:51.955Z,0
2017-12-11T06:51:17.395Z,0
2017-12-11T06:51:42.850Z,0
2017-12-11T06:52:08.309Z,0
2017-12-11T06:52:33.781Z,0
2017-12-11T06:53:48.402Z,0
2017-12-11T06:54:13.875Z,0
2017-12-11T06:54:39.337Z,0
2017-12-11T06:55:04.820Z,0
2017-12-11T06:55:30.319Z,0
2017-12-11T06:55:55.825Z,0
2017-12-11T06:56:21.277Z,0
2017-12-11T06:56:46.798Z,0
2017-12-11T06:57:12.380Z,0
2017-12-11T06:57:37.814Z,0
2017-12-11T06:58:03.348Z,0
2017-12-11T06:58:28.861Z,0
2017-12-11T06:58:54.358Z,0
2017-12-11T06:59:19.848Z,0
2017-12-11T06:59:45.305Z,0
2017-12-11T07:00:10.822Z,0
2017-12-11T07:00:36.299Z,0
2017-12-11T07:01:01.757Z,0
2017-12-11T07:01:27.249Z,0
2017-12-11T07:02:56.345Z,0
2017-12-11T07:03:21.830Z,0
2017-12-11T07:03:47.572Z,0
2017-12-11T07:04:12.956Z,0
2017-12-11T07:04:38.519Z,0
2017-12-11T07:05:04.038Z,0
2017-12-11T07:05:29.548Z,0
2017-12-11T07:05:55.008Z,0
2017-12-11T07:07:09.294Z,0
2017-12-11T07:07:34.792Z,0
2017-12-11T07:08:00.284Z,0
2017-12-11T07:09:19.548Z,0
2017-12-11T07:09:45.072Z,0
2017-12-11T07:10:10.545Z,0
2017-12-11T07:10:36.331Z,0
2017-12-11T07:11:01.868Z,0
2017-12-11T07:11:27.389Z,0
2017-12-11T07:11:52.901Z,0
2017-12-11T07:12:18.586Z,0
2017-12-11T07:12:43.957Z,0
2017-12-11T07:13:09.426Z,0
2017-12-11T07:13:34.925Z,0
2017-12-11T07:14:00.379Z,0
2017-12-11T07:14:25.884Z,0
2017-12-11T07:14:51.415Z,0
2017-12-11T07:15:16.849Z,0
2017-12-11T07:15:42.312Z,0
2017-12-11T07:16:07.816Z,0
2017-12-11T07:16:33.300Z,0
2017-12-11T07:16:58.783Z,0
2017-12-11T07:17:24.254Z,0
2017-12-11T07:17:49.738Z,0
2017-12-11T07:18:15.219Z,0
2017-12-11T07:18:40.702Z,0
2017-12-11T07:19:06.183Z,0
2017-12-11T07:19:31.740Z,0
2017-12-11T07:19:57.278Z,0
2017-12-11T07:20:22.766Z,0
2017-12-11T07:20:48.226Z,0
2017-12-11T07:21:13.759Z,0
2017-12-11T07:21:39.236Z,0
2017-12-11T07:22:04.785Z,0
2017-12-11T07:22:30.223Z,0
2017-12-11T07:22:55.718Z,0
2017-12-11T07:23:21.180Z,0
2017-12-11T07:23:46.650Z,0
2017-12-11T07:24:12.116Z,0
2017-12-11T07:24:37.577Z,0
2017-12-11T07:25:03.041Z,0
2017-12-11T07:25:28.539Z,0
2017-12-11T07:25:54.042Z,0
2017-12-11T07:26:19.550Z,0
2017-12-11T07:26:44.998Z,0
2017-12-11T07:27:10.525Z,0
2017-12-11T07:27:35.940Z,0
2017-12-11T07:28:44.908Z,0
2017-12-11T07:30:09.931Z,0
2017-12-11T07:30:35.434Z,0
2017-12-11T07:32:05.521Z,0
2017-12-11T07:32:31.020Z,0
2017-12-11T07:32:56.502Z,0
2017-12-11T07:33:22.010Z,0
2017-12-11T07:33:47.508Z,0
2017-12-11T07:34:12.981Z,0
2017-12-11T07:34:38.516Z,0
2017-12-11T07:35:03.999Z,0
2017-12-11T07:35:29.495Z,0
2017-12-11T07:35:55.017Z,0
2017-12-11T07:36:20.515Z,0
2017-12-11T07:36:46.013Z,0
2017-12-11T07:37:54.732Z,0
2017-12-11T07:38:20.227Z,0
2017-12-11T07:38:45.763Z,0
2017-12-11T07:39:11.261Z,0
2017-12-11T07:39:36.780Z,0
2017-12-11T07:40:02.234Z,0
2017-12-11T07:40:27.704Z,0
2017-12-11T07:40:53.234Z,0
2017-12-11T07:42:17.190Z,0
2017-12-11T07:42:42.654Z,0
2017-12-11T07:43:08.155Z,0
2017-12-11T07:43:33.634Z,0
2017-12-11T07:43:59.122Z,0
2017-12-11T07:44:24.589Z,0
2017-12-11T07:44:50.132Z,0
2017-12-11T07:45:15.566Z,0
2017-12-11T07:45:41.051Z,0
2017-12-11T07:46:06.579Z,0
2017-12-11T07:46:32.078Z,0
2017-12-11T07:46:57.573Z,0
2017-12-11T07:47:23.074Z,0
2017-12-11T07:47:48.552Z,0
2017-12-11T07:48:14.057Z,5
2017-12-11T07:48:39.586Z,5
2017-12-11T07:49:05.083Z,5
2017-12-11T07:49:30.612Z,5
2017-12-11T07:49:56.106Z,5
2017-12-11T07:51:09.989Z,5
2017-12-11T07:51:35.428Z,5
2017-12-11T07:52:00.941Z,5
2017-12-11T07:52:26.456Z,5
2017-12-11T07:52:51.921Z,5
2017-12-11T07:53:17.401Z,5
2017-12-11T07:53:42.906Z,5
2017-12-11T07:54:08.370Z,5
2017-12-11T07:54:33.810Z,5
2017-12-11T07:54:59.359Z,5
2017-12-11T07:56:28.534Z,5
2017-12-11T07:56:54.008Z,5
2017-12-11T07:57:19.483Z,5
2017-12-11T07:57:44.979Z,5
2017-12-11T07:58:10.467Z,5
2017-12-11T07:58:35.997Z,5
2017-12-11T07:59:01.469Z,5
2017-12-11T07:59:26.965Z,5
2017-12-11T07:59:52.498Z,5
2017-12-11T08:00:17.882Z,5
2017-12-11T08:00:43.442Z,5
2017-12-11T08:01:08.969Z,5
2017-12-11T08:01:34.444Z,5
2017-12-11T08:01:59.951Z,5
2017-12-11T08:02:25.444Z,5
2017-12-11T08:02:50.942Z,5
2017-12-11T08:03:16.450Z,5
2017-12-11T08:03:42.024Z,5
2017-12-11T08:04:07.586Z,5
2017-12-11T08:04:33.148Z,5
2017-12-11T08:04:58.653Z,5
2017-12-11T08:05:24.157Z,5
2017-12-11T08:05:49.661Z,5
2017-12-11T08:06:15.148Z,5
2017-12-11T08:06:40.620Z,5
2017-12-11T08:07:06.142Z,5
2017-12-11T08:07:31.619Z,5
2017-12-11T08:07:57.103Z,5
2017-12-11T08:08:22.587Z,5
2017-12-11T08:08:48.112Z,10
2017-12-11T08:09:13.568Z,10
2017-12-11T08:09:39.025Z,10
2017-12-11T08:10:04.529Z,10
2017-12-11T08:10:30.054Z,10
2017-12-11T08:10:55.538Z,10
2017-12-11T08:11:21.129Z,10
2017-12-11T08:11:46.533Z,10
2017-12-11T08:12:12.040Z,10
2017-12-11T08:12:37.508Z,10
2017-12-11T08:13:03.029Z,10
2017-12-11T08:14:27.007Z,10
2017-12-11T08:14:52.529Z,10
2017-12-11T08:15:18.051Z,10
2017-12-11T08:15:43.571Z,10
2017-12-11T08:16:09.103Z,10
2017-12-11T08:16:34.601Z,10
2017-12-11T08:17:00.119Z,10
2017-12-11T08:17:25.593Z,10
2017-12-11T08:17:51.092Z,10
2017-12-11T08:18:16.643Z,10
2017-12-11T08:18:42.120Z,10
2017-12-11T08:19:07.621Z,10
2017-12-11T08:19:33.122Z,10
2017-12-11T08:19:58.605Z,10
2017-12-11T08:20:24.080Z,10
2017-12-11T08:20:49.547Z,10
2017-12-11T08:21:15.044Z,10
2017-12-11T08:21:40.521Z,10
2017-12-11T08:22:06.041Z,10
2017-12-11T08:22:31.566Z,10
2017-12-11T08:22:57.070Z,15
2017-12-11T08:23:22.548Z,15
2017-12-11T08:23:48.037Z,15
2017-12-11T08:24:13.546Z,15
2017-12-11T08:24:39.017Z,15
2017-12-11T08:25:52.793Z,15
2017-12-11T08:26:18.300Z,15
2017-12-11T08:27:32.109Z,15
2017-12-11T08:27:57.594Z,15
2017-12-11T08:28:23.084Z,15
2017-12-11T08:28:48.603Z,15
2017-12-11T08:29:14.128Z,15
2017-12-11T08:30:27.892Z,15
2017-12-11T08:30:53.387Z,15
2017-12-11T08:31:18.896Z,15
2017-12-11T08:31:44.385Z,15
2017-12-11T08:32:09.893Z,15
2017-12-11T08:32:35.342Z,15
2017-12-11T08:33:00.864Z,15
2017-12-11T08:33:26.301Z,15
2017-12-11T08:34:35.021Z,15
2017-12-11T08:35:00.519Z,15
2017-12-11T08:35:25.977Z,15
2017-12-11T08:35:51.493Z,15
2017-12-11T08:36:16.994Z,15
2017-12-11T08:36:42.455Z,15
2017-12-11T08:37:07.979Z,15
2017-12-11T08:37:33.450Z,15
2017-12-11T08:37:58.930Z,15
2017-12-11T08:38:24.402Z,15
2017-12-11T08:38:49.906Z,15
2017-12-11T08:39:15.384Z,15
2017-12-11T08:39:40.885Z,15
2017-12-11T08:40:06.380Z,15
2017-12-11T08:40:31.857Z,15
2017-12-11T08:40:57.305Z,15
2017-12-11T08:41:22.846Z,15
2017-12-11T08:42:42.728Z,15
2017-12-11T08:43:08.242Z,15
2017-12-11T08:43:33.723Z,15
2017-12-11T08:43:59.222Z,15
2017-12-11T08:44:24.705Z,10
2017-12-11T08:44:50.194Z,10
2017-12-11T08:45:15.680Z,10
2017-12-11T08:45:41.188Z,10
2017-12-11T08:46:06.679Z,10
2017-12-11T08:46:32.185Z,10
2017-12-11T08:46:57.631Z,10
2017-12-11T08:47:23.121Z,10
2017-12-11T08:47:48.668Z,10
2017-12-11T08:48:14.217Z,10
2017-12-11T08:48:39.640Z,10
2017-12-11T08:49:05.120Z,10
2017-12-11T08:49:30.609Z,15
2017-12-11T08:49:56.239Z,15
2017-12-11T08:50:21.671Z,15
2017-12-11T08:50:47.164Z,15
2017-12-11T08:51:12.723Z,15
2017-12-11T08:51:38.214Z,15
2017-12-11T08:52:03.707Z,15
2017-12-11T08:52:29.207Z,15
2017-12-11T08:52:54.750Z,15
2017-12-11T08:53:20.281Z,15
2017-12-11T08:53:45.818Z,15
2017-12-11T08:54:11.266Z,15
2017-12-11T08:54:36.727Z,15
2017-12-11T08:55:02.259Z,15
2017-12-11T08:55:27.731Z,15
2017-12-11T08:55:53.249Z,15
2017-12-11T08:56:18.765Z,15
2017-12-11T08:56:44.296Z,15
2017-12-11T08:57:09.820Z,15
2017-12-11T08:57:35.326Z,15
2017-12-11T08:58:00.867Z,15
2017-12-11T08:58:26.321Z,15
2017-12-11T08:58:51.865Z,15
2017-12-11T08:59:17.327Z,15
2017-12-11T08:59:42.841Z,15
2017-12-11T09:00:08.436Z,15
2017-12-11T09:00:33.972Z,15
2017-12-11T09:00:59.447Z,15
2017-12-11T09:01:24.988Z,15
2017-12-11T09:01:50.525Z,15
2017-12-11T09:02:16.090Z,15
2017-12-11T09:02:41.621Z,15
2017-12-11T09:03:07.113Z,15
2017-12-11T09:03:32.631Z,15
2017-12-11T09:03:58.185Z,15
2017-12-11T09:04:23.702Z,15
2017-12-11T09:04:49.200Z,15
2017-12-11T09:05:14.696Z,15
2017-12-11T09:05:40.188Z,15
2017-12-11T09:06:05.679Z,15
2017-12-11T09:06:31.225Z,15
2017-12-11T09:06:56.862Z,15
2017-12-11T09:07:22.359Z,15
2017-12-11T09:07:47.922Z,15
2017-12-11T09:08:13.542Z,15
2017-12-11T09:08:39.013Z,15
2017-12-11T09:09:04.505Z,15
2017-12-11T09:09:29.988Z,15
2017-12-11T09:09:55.482Z,20
2017-12-11T09:10:20.988Z,20
2017-12-11T09:10:46.503Z,20
2017-12-11T09:11:11.967Z,20
2017-12-11T09:11:37.477Z,20
2017-12-11T09:12:02.947Z,20
2017-12-11T09:12:28.436Z,20
2017-12-11T09:12:53.881Z,20
2017-12-11T09:13:19.395Z,20
2017-12-11T09:13:44.869Z,15
2017-12-11T09:14:10.400Z,15
2017-12-11T09:14:35.890Z,20
2017-12-11T09:15:01.380Z,20
2017-12-11T09:16:25.376Z,20
2017-12-11T09:16:50.851Z,20
2017-12-11T09:17:16.338Z,20
2017-12-11T09:17:41.848Z,20
2017-12-11T09:18:07.306Z,20
2017-12-11T09:18:32.804Z,20
2017-12-11T09:18:58.290Z,20
2017-12-11T09:19:23.807Z,20
2017-12-11T09:19:49.338Z,20
2017-12-11T09:20:14.857Z,20
2017-12-11T09:20:40.309Z,20
2017-12-11T09:21:05.816Z,20
2017-12-11T09:21:31.339Z,20
2017-12-11T09:21:56.853Z,20
2017-12-11T09:22:22.332Z,20
2017-12-11T09:22:47.835Z,20
2017-12-11T09:23:13.330Z,20
2017-12-11T09:23:38.807Z,20
2017-12-11T09:24:04.330Z,20
2017-12-11T09:24:29.864Z,20
2017-12-11T09:24:55.359Z,20
2017-12-11T09:25:20.929Z,20
2017-12-11T09:25:46.409Z,20
2017-12-11T09:26:11.875Z,25
2017-12-11T09:26:37.376Z,25
2017-12-11T09:27:02.855Z,25
2017-12-11T09:27:28.348Z,25
2017-12-11T09:28:57.435Z,25
2017-12-11T09:29:22.921Z,20
2017-12-11T09:29:48.383Z,20
2017-12-11T09:30:13.843Z,20
2017-12-11T09:30:39.347Z,20
2017-12-11T09:31:04.860Z,20
2017-12-11T09:31:30.355Z,20
2017-12-11T09:31:55.855Z,20
2017-12-11T09:32:21.375Z,20
2017-12-11T09:32:46.870Z,25
2017-12-11T09:33:12.326Z,25
2017-12-11T09:33:37.862Z,25
2017-12-11T09:34:03.347Z,25
2017-12-11T09:34:28.885Z,25
2017-12-11T09:34:54.343Z,25
2017-12-11T09:35:19.797Z,25
2017-12-11T09:35:45.288Z,25
2017-12-11T09:36:10.791Z,25
2017-12-11T09:36:36.257Z,25
2017-12-11T09:37:01.754Z,25
2017-12-11T09:38:15.526Z,25
2017-12-11T09:38:41.052Z,25
2017-12-11T09:39:06.579Z,25
2017-12-11T09:39:32.139Z,25
2017-12-11T09:39:57.617Z,25
2017-12-11T09:40:23.103Z,25
2017-12-11T09:40:48.575Z,25
2017-12-11T09:41:14.101Z,25
2017-12-11T09:41:39.626Z,30
2017-12-11T09:42:05.113Z,30
2017-12-11T09:42:30.597Z,30
2017-12-11T09:42:56.108Z,30
2017-12-11T09:43:21.606Z,30
2017-12-11T09:43:47.120Z,30
2017-12-11T09:44:12.595Z,30
2017-12-11T09:44:38.082Z,30
2017-12-11T09:45:03.577Z,30
2017-12-11T09:45:29.066Z,30
2017-12-11T09:45:54.588Z,30
2017-12-11T09:46:20.052Z,30
2017-12-11T09:46:45.584Z,30
2017-12-11T09:47:11.068Z,30
2017-12-11T09:47:36.592Z,30
2017-12-11T09:48:02.057Z,35
2017-12-11T09:48:27.559Z,35
2017-12-11T09:48:53.027Z,35
2017-12-11T09:50:11.950Z,35
2017-12-11T09:50:37.460Z,35
2017-12-11T09:51:02.946Z,35
2017-12-11T09:51:28.449Z,35
2017-12-11T09:51:53.921Z,40
2017-12-11T09:52:19.414Z,40
2017-12-11T09:52:44.943Z,40
2017-12-11T09:53:10.415Z,40
2017-12-11T09:53:35.920Z,40
2017-12-11T09:54:01.392Z,40
2017-12-11T09:54:26.859Z,45
2017-12-11T09:54:52.324Z,45
2017-12-11T09:55:17.841Z,45
2017-12-11T09:55:43.324Z,45
2017-12-11T09:56:08.804Z,45
2017-12-11T09:56:34.273Z,45
2017-12-11T09:56:59.769Z,45
2017-12-11T09:57:25.231Z,45
2017-12-11T09:57:50.730Z,50
2017-12-11T09:58:16.216Z,50
2017-12-11T09:58:41.756Z,50
2017-12-11T09:59:07.245Z,50
2017-12-11T09:59:32.742Z,50
2017-12-11T09:59:58.236Z,50
2017-12-11T10:00:23.763Z,50
2017-12-11T10:00:49.275Z,50
2017-12-11T10:01:14.694Z,50
2017-12-11T10:01:40.213Z,50
2017-12-11T10:02:05.704Z,50
2017-12-11T10:02:31.182Z,50
2017-12-11T10:02:56.695Z,50
2017-12-11T10:03:22.248Z,45
2017-12-11T10:03:47.752Z,45
2017-12-11T10:04:13.284Z,45
2017-12-11T10:04:38.799Z,45
2017-12-11T10:05:48.070Z,45
2017-12-11T10:06:13.558Z,45
2017-12-11T10:06:39.015Z,45
2017-12-11T10:07:04.476Z,45
2017-12-11T10:07:29.986Z,45
2017-12-11T10:07:55.458Z,45
2017-12-11T10:08:21.038Z,45
2017-12-11T10:08:46.546Z,45
2017-12-11T10:09:12.035Z,45
2017-12-11T10:09:37.684Z,45
2017-12-11T10:10:51.401Z,45
2017-12-11T10:11:16.886Z,45
2017-12-11T10:11:42.386Z,45
2017-12-11T10:12:07.877Z,45
2017-12-11T10:12:33.342Z,45
2017-12-11T10:12:58.840Z,45
2017-12-11T10:13:24.335Z,45
2017-12-11T10:13:49.823Z,45
2017-12-11T10:14:15.351Z,45
2017-12-11T10:14:40.854Z,45
2017-12-11T10:15:06.366Z,45
2017-12-11T10:15:31.865Z,40
2017-12-11T10:15:57.345Z,40
2017-12-11T10:16:22.852Z,40
2017-12-11T10:16:48.436Z,40
2017-12-11T10:17:13.916Z,40
2017-12-11T10:17:39.448Z,40
2017-12-11T10:18:04.962Z,40
2017-12-11T10:18:30.449Z,40
2017-12-11T10:18:55.936Z,40
2017-12-11T10:19:21.410Z,40
2017-12-11T10:19:46.910Z,40
2017-12-11T10:20:12.422Z,40
2017-12-11T10:20:37.905Z,40
2017-12-11T10:21:03.402Z,40
2017-12-11T10:21:28.902Z,40
2017-12-11T10:21:54.373Z,45
2017-12-11T10:22:19.840Z,45
2017-12-11T10:23:28.540Z,45
2017-12-11T10:23:54.041Z,45
2017-12-11T10:24:19.548Z,45
2017-12-11T10:24:45.041Z,45
2017-12-11T10:25:10.568Z,45
2017-12-11T10:25:36.074Z,45
2017-12-11T10:26:01.628Z,45
2017-12-11T10:26:27.078Z,45
2017-12-11T10:26:52.569Z,45
2017-12-11T10:27:18.092Z,45
2017-12-11T10:27:43.638Z,45
2017-12-11T10:28:09.124Z,45
2017-12-11T10:28:34.643Z,45
2017-12-11T10:29:00.094Z,45
2017-12-11T10:29:25.598Z,45
2017-12-11T10:29:51.053Z,45
2017-12-11T10:30:16.563Z,45
2017-12-11T10:30:42.082Z,45
2017-12-11T10:31:07.575Z,45
2017-12-11T10:31:33.085Z,45
2017-12-11T10:31:58.620Z,45
2017-12-11T10:33:12.411Z,45
2017-12-11T10:33:37.900Z,45
2017-12-11T10:34:03.380Z,45
2017-12-11T10:34:28.887Z,50
2017-12-11T10:34:54.378Z,45
2017-12-11T10:35:19.837Z,45
2017-12-11T10:35:45.360Z,45
2017-12-11T10:36:10.855Z,45
2017-12-11T10:36:36.383Z,45
2017-12-11T10:37:01.875Z,45
2017-12-11T10:37:27.343Z,50
2017-12-11T10:37:52.846Z,50
2017-12-11T10:38:18.327Z,50
2017-12-11T10:38:43.928Z,45
2017-12-11T10:39:09.434Z,45
2017-12-11T10:39:34.968Z,45
2017-12-11T10:40:00.411Z,45
2017-12-11T10:40:25.887Z,45
2017-12-11T10:40:51.402Z,45
2017-12-11T10:41:16.911Z,45
2017-12-11T10:41:42.383Z,45
2017-12-11T10:43:11.525Z,40
2017-12-11T10:43:36.985Z,40
2017-12-11T10:44:02.515Z,40
2017-12-11T10:44:28.004Z,40
2017-12-11T10:44:53.514Z,40
2017-12-11T10:45:18.955Z,40
2017-12-11T10:45:44.478Z,40
2017-12-11T10:46:58.247Z,40
2017-12-11T10:47:23.726Z,40
2017-12-11T10:47:49.196Z,40
2017-12-11T10:48:14.665Z,40
2017-12-11T10:48:40.148Z,45
2017-12-11T10:49:05.666Z,45
2017-12-11T10:49:31.189Z,45
2017-12-11T10:50:55.188Z,40
2017-12-11T10:51:20.699Z,40
2017-12-11T10:51:46.173Z,40
2017-12-11T10:52:11.653Z,40
2017-12-11T10:52:37.142Z,40
2017-12-11T10:53:02.654Z,40
2017-12-11T10:53:28.144Z,40
2017-12-11T10:53:53.677Z,40
2017-12-11T10:54:19.130Z,40
2017-12-11T10:54:44.597Z,40
2017-12-11T10:56:08.633Z,40
2017-12-11T10:56:34.114Z,40
2017-12-11T10:56:59.603Z,40
2017-12-11T10:57:25.117Z,40
2017-12-11T10:57:50.628Z,40
2017-12-11T10:58:16.105Z,40
2017-12-11T10:58:41.706Z,40
2017-12-11T10:59:07.166Z,40
2017-12-11T10:59:32.670Z,40
2017-12-11T10:59:58.170Z,40
2017-12-11T11:00:23.706Z,40
2017-12-11T11:00:49.201Z,40
2017-12-11T11:01:14.721Z,40
2017-12-11T11:01:40.177Z,40
2017-12-11T11:02:05.663Z,40
2017-12-11T11:02:31.235Z,40
2017-12-11T11:02:56.721Z,40
2017-12-11T11:03:22.183Z,40
2017-12-11T11:03:47.651Z,40
2017-12-11T11:04:13.168Z,40
2017-12-11T11:04:38.666Z,40
2017-12-11T11:05:04.153Z,40
2017-12-11T11:05:29.606Z,40
2017-12-11T11:05:55.194Z,40
2017-12-11T11:06:20.664Z,40
2017-12-11T11:07:34.436Z,40
2017-12-11T11:07:59.924Z,40
2017-12-11T11:09:18.855Z,40
2017-12-11T11:09:44.340Z,40
2017-12-11T11:10:09.846Z,40
2017-12-11T11:10:35.323Z,40
2017-12-11T11:11:00.790Z,45
2017-12-11T11:11:26.312Z,45
2017-12-11T11:11:51.829Z,45
2017-12-11T11:12:17.343Z,45
2017-12-11T11:12:42.827Z,45
2017-12-11T11:13:08.341Z,45
2017-12-11T11:13:33.821Z,45
2017-12-11T11:13:59.334Z,45
2017-12-11T11:14:24.832Z,45
2017-12-11T11:14:50.319Z,50
2017-12-11T11:15:15.835Z,45
2017-12-11T11:15:41.270Z,45
2017-12-11T11:17:05.295Z,40
2017-12-11T11:17:30.773Z,40
2017-12-11T11:17:56.265Z,40
2017-12-11T11:18:21.772Z,40
2017-12-11T11:18:47.259Z,40
2017-12-11T11:19:12.741Z,40
2017-12-11T11:19:38.282Z,40
2017-12-11T11:20:03.788Z,40
2017-12-11T11:20:29.293Z,35
2017-12-11T11:20:54.793Z,35
2017-12-11T11:21:20.288Z,35
2017-12-11T11:21:45.815Z,35
2017-12-11T11:22:11.269Z,35
2017-12-11T11:22:36.735Z,35
2017-12-11T11:23:02.274Z,35
2017-12-11T11:23:27.752Z,30
2017-12-11T11:23:53.232Z,30
2017-12-11T11:24:18.978Z,30
2017-12-11T11:24:44.706Z,30
2017-12-11T11:25:10.494Z,30
2017-12-11T11:25:36.011Z,30
2017-12-11T11:26:01.475Z,30
2017-12-11T11:26:27.054Z,30
2017-12-11T11:26:52.565Z,30
2017-12-11T11:27:18.067Z,30
2017-12-11T11:27:43.573Z,30
2017-12-11T11:28:09.074Z,30
2017-12-11T11:28:34.629Z,30
2017-12-11T11:29:00.091Z,30
2017-12-11T11:29:25.595Z,30
2017-12-11T11:29:51.137Z,25
2017-12-11T11:30:16.530Z,25
2017-12-11T11:30:42.129Z,25
2017-12-11T11:31:07.582Z,25
2017-12-11T11:31:33.076Z,25
2017-12-11T11:31:58.612Z,25
2017-12-11T11:32:24.128Z,25
2017-12-11T11:32:49.625Z,25
2017-12-11T11:33:15.106Z,25
2017-12-11T11:33:40.608Z,25
2017-12-11T11:34:06.107Z,25
2017-12-11T11:34:31.593Z,25
2017-12-11T11:34:57.097Z,25
2017-12-11T11:35:22.577Z,25
2017-12-11T11:35:48.068Z,25
2017-12-11T11:36:13.565Z,25
2017-12-11T11:36:39.068Z,25
2017-12-11T11:37:04.590Z,25
2017-12-11T11:37:30.167Z,25
2017-12-11T11:37:55.691Z,25
2017-12-11T11:38:21.104Z,25
2017-12-11T11:38:46.686Z,25
2017-12-11T11:39:12.305Z,25
2017-12-11T11:39:37.699Z,25
2017-12-11T11:40:03.215Z,25
2017-12-11T11:40:28.732Z,25
2017-12-11T11:40:54.218Z,25
2017-12-11T11:43:01.460Z,25
2017-12-11T11:43:26.951Z,25
2017-12-11T11:43:52.463Z,25
2017-12-11T11:44:17.967Z,25
2017-12-11T11:45:42.018Z,25
2017-12-11T11:46:07.536Z,25
2017-12-11T11:46:33.050Z,25
2017-12-11T11:46:58.620Z,25